Time;durP1;ratioP1;P1;durP2;ratioP2;P2;SDS_P1;SDS_P2;PMS_P1;PMS_P2;Temp;Humidity;BMP_temperature;BMP_pressure;BME280_temperature;BME280_humidity;BME280_pressure;Samples;Min_cycle;Max_cycle;Signal;HPM_P1;HPM_P2
2021/05/14 00:00:46;;;;;;;1.25;0.70;;;11.40;79.60;;;;;;5031276;28;20459;-69
2021/05/14 00:03:11;;;;;;;0.70;0.70;;;11.40;79.70;;;;;;5031390;28;20018;-69
2021/05/14 00:05:37;;;;;;;1.48;0.73;;;11.30;79.90;;;;;;5032392;28;20025;-69
2021/05/14 00:08:05;;;;;;;2.40;0.80;;;11.30;80.20;;;;;;5032442;28;20037;-69
2021/05/14 00:10:31;;;;;;;1.65;0.70;;;11.20;80.50;;;;;;5014598;28;20033;-71
2021/05/14 00:12:57;;;;;;;1.55;0.63;;;11.20;80.70;;;;;;5014342;28;20053;-71
2021/05/14 00:15:23;;;;;;;1.52;0.90;;;11.20;80.70;;;;;;5031537;28;20073;-69
2021/05/14 00:17:50;;;;;;;2.08;0.85;;;11.10;80.90;;;;;;5032325;28;20029;-69
2021/05/14 00:20:16;;;;;;;2.95;0.90;;;11.10;81.10;;;;;;5014009;28;20108;-69
2021/05/14 00:22:42;;;;;;;3.35;1.00;;;11.10;81.20;;;;;;5014569;28;20129;-69
2021/05/14 00:25:10;;;;;;;2.90;0.80;;;11.10;81.40;;;;;;5013755;28;20179;-69
2021/05/14 00:27:36;;;;;;;2.35;0.80;;;11.10;81.20;;;;;;5014629;28;20026;-69
2021/05/14 00:30:04;;;;;;;2.20;1.00;;;11.10;81.20;;;;;;5032169;28;20026;-68
2021/05/14 00:32:30;;;;;;;2.03;0.85;;;11.10;81.00;;;;;;5031351;28;20033;-70
2021/05/14 00:34:55;;;;;;;0.88;0.70;;;11.10;80.80;;;;;;5032364;28;20447;-69
2021/05/14 00:37:21;;;;;;;1.67;0.82;;;11.10;80.70;;;;;;5031505;28;20475;-69
2021/05/14 00:39:47;;;;;;;1.00;0.65;;;11.10;80.60;;;;;;5032217;28;20033;-69
2021/05/14 00:42:12;;;;;;;2.58;0.93;;;11.10;80.40;;;;;;5017590;28;20030;-69
2021/05/14 00:44:45;;;;;;;1.55;1.00;;;11.10;80.50;;;;;;5035705;28;20095;-69
2021/05/14 00:47:11;;;;;;;0.70;0.65;;;11.10;80.30;;;;;;5035265;28;20478;-69
2021/05/14 00:49:39;;;;;;;1.33;0.77;;;11.10;81.00;;;;;;5017857;28;20029;-69
2021/05/14 00:52:06;;;;;;;0.98;0.75;;;11.10;80.30;;;;;;5035789;28;20025;-69
2021/05/14 00:54:32;;;;;;;2.10;1.00;;;11.20;80.30;;;;;;5017807;28;20500;-68
2021/05/14 00:56:58;;;;;;;1.75;0.93;;;11.20;80.30;;;;;;5035650;28;20026;-69
2021/05/14 00:59:25;;;;;;;1.45;0.80;;;11.10;80.40;;;;;;5017157;28;20120;-69
2021/05/14 01:01:51;;;;;;;1.90;0.90;;;11.20;80.40;;;;;;5017781;28;20045;-69
2021/05/14 01:04:17;;;;;;;1.63;0.90;;;11.10;80.50;;;;;;5034598;28;20025;-69
2021/05/14 01:06:42;;;;;;;1.10;0.70;;;11.10;80.60;;;;;;5035466;28;20101;-69
2021/05/14 01:09:08;;;;;;;2.30;1.10;;;11.10;80.90;;;;;;5034796;28;20029;-72
2021/05/14 01:11:34;;;;;;;1.88;0.98;;;11.10;80.90;;;;;;5035372;28;20029;-69
2021/05/14 01:14:00;;;;;;;0.80;0.65;;;11.10;81.00;;;;;;5035264;28;20039;-69
2021/05/14 01:16:26;;;;;;;2.40;0.98;;;11.10;81.10;;;;;;5033300;28;20037;-68
2021/05/14 01:18:53;;;;;;;1.67;0.80;;;11.10;81.30;;;;;;5017522;28;20037;-68
2021/05/14 01:21:19;;;;;;;1.35;0.80;;;11.10;81.50;;;;;;5034580;28;20029;-69
2021/05/14 01:23:45;;;;;;;1.65;0.80;;;11.10;81.60;;;;;;5017391;28;20025;-69
2021/05/14 01:26:12;;;;;;;2.13;0.80;;;11.00;81.50;;;;;;5034479;28;20076;-69
2021/05/14 01:28:38;;;;;;;1.52;0.82;;;11.00;81.60;;;;;;5034934;28;20029;-69
2021/05/14 01:31:04;;;;;;;2.30;0.80;;;11.00;81.60;;;;;;5035046;28;20029;-69
2021/05/14 01:33:29;;;;;;;1.35;0.90;;;11.00;81.50;;;;;;5032829;28;20127;-69
2021/05/14 01:35:55;;;;;;;2.33;0.98;;;11.00;81.70;;;;;;5017165;28;20120;-69
2021/05/14 01:38:21;;;;;;;0.95;0.75;;;11.00;81.60;;;;;;5034022;28;20033;-69
2021/05/14 01:40:46;;;;;;;2.50;1.15;;;11.00;81.60;;;;;;5017048;28;20532;-69
2021/05/14 01:43:12;;;;;;;1.00;0.73;;;10.90;81.70;;;;;;5034170;28;20026;-69
2021/05/14 01:45:37;;;;;;;1.35;0.90;;;10.90;81.90;;;;;;5016787;28;20025;-69
2021/05/14 01:48:04;;;;;;;1.23;0.82;;;10.90;82.70;;;;;;5016467;28;20046;-69
2021/05/14 01:50:29;;;;;;;2.50;0.80;;;10.90;82.20;;;;;;5033641;28;20021;-69
2021/05/14 01:52:55;;;;;;;1.60;0.82;;;10.90;82.00;;;;;;5034299;28;20378;-69
2021/05/14 01:55:21;;;;;;;4.53;0.80;;;10.90;81.80;;;;;;5016142;28;20032;-69
2021/05/14 01:57:46;;;;;;;1.08;0.63;;;10.90;81.80;;;;;;5016812;28;20529;-69
2021/05/14 02:00:12;;;;;;;2.63;1.00;;;10.90;81.70;;;;;;5016124;28;20029;-69
2021/05/14 02:02:38;;;;;;;1.20;0.85;;;10.90;81.70;;;;;;5016699;28;20025;-69
2021/05/14 02:05:04;;;;;;;0.85;0.65;;;10.80;81.80;;;;;;5033207;28;20390;-69
2021/05/14 02:07:30;;;;;;;2.47;0.82;;;10.80;82.10;;;;;;5032377;28;20076;-69
2021/05/14 02:09:57;;;;;;;1.48;1.02;;;10.80;82.30;;;;;;5034615;28;20033;-69
2021/05/14 02:12:22;;;;;;;3.22;0.90;;;10.80;82.40;;;;;;5015869;28;20061;-69
2021/05/14 02:14:48;;;;;;;1.27;1.00;;;10.70;82.30;;;;;;5016133;28;20056;-69
2021/05/14 02:17:14;;;;;;;1.70;0.98;;;10.70;82.30;;;;;;5033765;28;20037;-69
2021/05/14 02:19:39;;;;;;;4.50;0.98;;;10.70;82.50;;;;;;5016394;28;20394;-68
2021/05/14 02:22:05;;;;;;;1.58;1.02;;;10.60;82.70;;;;;;5016388;28;20120;-69
2021/05/14 02:24:31;;;;;;;1.95;0.90;;;10.60;82.80;;;;;;5032184;28;20398;-69
2021/05/14 02:26:57;;;;;;;0.80;0.70;;;10.60;83.00;;;;;;5016176;28;20032;-69
2021/05/14 02:29:22;;;;;;;1.60;0.90;;;10.60;83.00;;;;;;5033343;28;20026;-69
2021/05/14 02:31:48;;;;;;;2.17;1.05;;;10.60;83.20;;;;;;5016152;28;20052;-69
2021/05/14 02:34:14;;;;;;;2.70;0.73;;;10.60;83.20;;;;;;5032845;28;20033;-69
2021/05/14 02:36:40;;;;;;;1.20;0.70;;;10.50;83.20;;;;;;5016234;28;20422;-68
2021/05/14 02:39:08;;;;;;;1.27;0.80;;;10.50;83.40;;;;;;5033732;28;20076;-69
2021/05/14 02:41:37;;;;;;;1.65;1.05;;;10.50;83.60;;;;;;5033077;28;20034;-69
2021/05/14 02:44:05;;;;;;;2.03;0.95;;;10.40;83.80;;;;;;5033685;28;20037;-69
2021/05/14 02:46:34;;;;;;;1.52;1.00;;;10.40;83.90;;;;;;5014872;28;20053;-69
2021/05/14 02:49:00;;;;;;;1.80;0.80;;;10.40;83.90;;;;;;5033545;28;20033;-69
2021/05/14 02:51:25;;;;;;;1.30;0.90;;;10.50;83.90;;;;;;5015071;28;20021;-69
2021/05/14 02:53:51;;;;;;;2.15;0.98;;;10.50;83.90;;;;;;5015634;28;20079;-69
2021/05/14 02:56:18;;;;;;;2.17;0.80;;;10.40;84.60;;;;;;5015053;28;20029;-69
2021/05/14 02:58:44;;;;;;;2.40;1.15;;;10.40;84.10;;;;;;5015707;28;20025;-71
2021/05/14 03:01:09;;;;;;;1.48;0.98;;;10.40;84.10;;;;;;5015616;28;20129;-71
2021/05/14 03:03:35;;;;;;;1.15;0.70;;;10.40;84.00;;;;;;5014524;28;20025;-71
2021/05/14 03:06:01;;;;;;;1.00;0.90;;;10.40;83.90;;;;;;5015576;28;20025;-71
2021/05/14 03:08:26;;;;;;;2.97;1.10;;;10.40;83.90;;;;;;5032392;28;20037;-70
2021/05/14 03:10:52;;;;;;;2.83;0.80;;;10.40;83.80;;;;;;5031947;28;20064;-70
2021/05/14 03:13:18;;;;;;;1.80;1.05;;;10.40;83.80;;;;;;5032512;28;20390;-71
2021/05/14 03:15:43;;;;;;;2.92;1.10;;;10.40;83.90;;;;;;5015505;28;20041;-71
2021/05/14 03:18:09;;;;;;;1.55;1.10;;;10.30;84.10;;;;;;5031674;28;20076;-70
2021/05/14 03:20:35;;;;;;;1.65;0.95;;;10.20;84.50;;;;;;5032670;28;20032;-71
2021/05/14 03:23:01;;;;;;;4.70;1.30;;;10.20;84.80;;;;;;5015408;28;20148;-70
2021/05/14 03:25:26;;;;;;;1.33;0.88;;;10.10;85.00;;;;;;5014700;28;20482;-71
2021/05/14 03:27:52;;;;;;;1.98;1.10;;;10.10;85.40;;;;;;5031331;28;20048;-70
2021/05/14 03:30:18;;;;;;;3.65;1.20;;;10.10;85.20;;;;;;5031043;28;20029;-71
2021/05/14 03:32:45;;;;;;;2.03;1.00;;;10.10;85.20;;;;;;5015401;28;20195;-71
2021/05/14 03:35:10;;;;;;;3.13;1.00;;;10.10;85.20;;;;;;5031400;28;20041;-71
2021/05/14 03:37:37;;;;;;;1.27;1.08;;;10.10;85.30;;;;;;5032053;28;20196;-69
2021/05/14 03:40:15;;;;;;;1.90;1.10;;;10.00;85.40;;;;;;5015017;28;20083;-69
2021/05/14 03:42:41;;;;;;;5.28;1.20;;;10.00;85.60;;;;;;5014450;28;20033;-68
2021/05/14 03:45:09;;;;;;;2.60;1.17;;;10.00;85.60;;;;;;5032579;28;20028;-69
2021/05/14 03:47:35;;;;;;;1.30;0.90;;;10.00;85.50;;;;;;5010621;28;20100;-69
2021/05/14 03:50:00;;;;;;;1.65;0.95;;;10.10;85.60;;;;;;5012595;28;20026;-69
2021/05/14 03:52:26;;;;;;;3.05;1.00;;;10.00;85.60;;;;;;5012011;28;20471;-68
2021/05/14 03:54:52;;;;;;;1.63;1.05;;;10.00;85.60;;;;;;5012771;28;20117;-68
2021/05/14 03:57:17;;;;;;;1.50;1.00;;;9.90;85.70;;;;;;5012876;28;20117;-68
2021/05/14 03:59:43;;;;;;;2.55;0.95;;;9.90;85.80;;;;;;5011537;28;20029;-69
2021/05/14 04:02:10;;;;;;;2.40;1.13;;;10.00;85.80;;;;;;5011548;28;20025;-68
2021/05/14 04:04:35;;;;;;;2.38;1.02;;;10.00;85.80;;;;;;5012116;28;20026;-68
2021/05/14 04:07:04;;;;;;;1.48;0.85;;;9.90;85.90;;;;;;5012785;28;20521;-69
2021/05/14 04:09:32;;;;;;;1.80;1.05;;;9.90;86.00;;;;;;5010849;28;20053;-69
2021/05/14 04:14:30;;;;;;;1.30;0.90;;;9.90;85.90;;;;;;5012722;28;20034;-71
2021/05/14 04:17:01;;;;;;;1.52;1.00;;;9.90;85.70;;;;;;5015016;28;20038;-71
2021/05/14 04:19:28;;;;;;;2.17;1.20;;;9.90;85.80;;;;;;5014852;28;20033;-71
2021/05/14 04:21:55;;;;;;;2.22;0.80;;;10.00;85.80;;;;;;5015313;28;20030;-70
2021/05/14 04:24:21;;;;;;;1.63;1.15;;;9.90;86.00;;;;;;5015876;28;20036;-72
2021/05/14 04:26:52;;;;;;;1.65;1.10;;;9.90;86.10;;;;;;5016476;28;20022;-71
2021/05/14 04:29:18;;;;;;;1.63;1.08;;;9.90;86.00;;;;;;5015196;28;20038;-70
2021/05/14 04:31:46;;;;;;;5.90;1.02;;;9.90;86.40;;;;;;5015537;28;20029;-70
2021/05/14 04:34:13;;;;;;;3.00;1.30;;;9.80;86.40;;;;;;5014928;28;20034;-71
2021/05/14 04:36:39;;;;;;;2.58;1.30;;;9.90;86.50;;;;;;5015496;28;20112;-71
2021/05/14 04:39:07;;;;;;;1.05;0.95;;;9.90;86.40;;;;;;5015889;28;20364;-71
2021/05/14 04:41:33;;;;;;;2.22;1.10;;;9.90;86.20;;;;;;5015223;28;20422;-70
2021/05/14 04:44:00;;;;;;;1.58;1.10;;;10.00;86.30;;;;;;5014829;28;20478;-71
2021/05/14 04:46:26;;;;;;;1.52;1.17;;;10.00;86.20;;;;;;5013903;28;20410;-71
2021/05/14 04:48:52;;;;;;;2.08;1.30;;;10.00;86.30;;;;;;5014734;28;20030;-71
2021/05/14 04:51:18;;;;;;;2.63;1.00;;;10.00;86.20;;;;;;5014735;28;20030;-71
2021/05/14 04:53:45;;;;;;;1.63;1.00;;;10.10;86.20;;;;;;5013670;28;20076;-71
2021/05/14 04:56:13;;;;;;;1.30;1.00;;;10.10;86.20;;;;;;5014682;28;20037;-69
2021/05/14 04:58:38;;;;;;;1.42;1.20;;;10.10;86.20;;;;;;5013729;28;20030;-69
2021/05/14 05:01:04;;;;;;;2.83;1.05;;;10.10;86.10;;;;;;5016157;28;20105;-71
2021/05/14 05:03:30;;;;;;;2.75;1.20;;;10.20;86.10;;;;;;5030107;28;20037;-69
2021/05/14 05:05:56;;;;;;;1.95;1.10;;;10.10;86.20;;;;;;5030915;28;20376;-69
2021/05/14 05:08:22;;;;;;;1.58;1.00;;;10.10;86.10;;;;;;5014435;28;20159;-69
2021/05/14 05:10:47;;;;;;;1.58;1.25;;;10.10;86.30;;;;;;5014599;28;20030;-69
2021/05/14 05:13:14;;;;;;;2.03;1.00;;;10.20;86.30;;;;;;5014229;28;20458;-69
2021/05/14 05:15:39;;;;;;;5.10;0.93;;;10.20;86.10;;;;;;5013574;28;20123;-69
2021/05/14 05:18:05;;;;;;;2.83;1.20;;;10.30;86.00;;;;;;5015500;28;20479;-68
2021/05/14 05:20:31;;;;;;;1.52;0.80;;;10.30;86.20;;;;;;5013696;28;20036;-69
2021/05/14 05:22:56;;;;;;;1.08;0.85;;;10.30;86.20;;;;;;5014278;28;20503;-69
2021/05/14 05:25:22;;;;;;;2.28;0.88;;;10.30;86.10;;;;;;5013595;28;20084;-68
2021/05/14 05:27:48;;;;;;;1.50;0.88;;;10.40;86.20;;;;;;5013708;28;20033;-69
2021/05/14 05:30:16;;;;;;;2.92;1.15;;;10.40;86.10;;;;;;5013722;28;20026;-69
2021/05/14 05:32:42;;;;;;;2.28;1.10;;;10.30;85.80;;;;;;5014709;28;20033;-70
2021/05/14 05:35:08;;;;;;;1.30;0.80;;;10.40;85.90;;;;;;5014861;28;20034;-70
2021/05/14 05:37:33;;;;;;;2.67;1.27;;;10.50;86.00;;;;;;5013279;28;20029;-71
2021/05/14 05:39:59;;;;;;;1.25;0.90;;;10.50;85.60;;;;;;5013821;28;20026;-70
2021/05/14 05:42:25;;;;;;;2.33;1.05;;;10.70;85.50;;;;;;5014209;28;20434;-71
2021/05/14 05:44:50;;;;;;;1.63;0.70;;;10.60;84.80;;;;;;5013774;28;20450;-71
2021/05/14 05:47:16;;;;;;;3.05;0.93;;;10.60;84.70;;;;;;5013364;28;20554;-71
2021/05/14 05:49:41;;;;;;;1.17;1.00;;;10.60;84.90;;;;;;5013087;28;20026;-71
2021/05/14 05:52:07;;;;;;;1.40;1.05;;;10.60;85.20;;;;;;5014946;28;20383;-70
2021/05/14 05:54:33;;;;;;;3.10;1.15;;;10.60;85.10;;;;;;5014146;28;20105;-71
2021/05/14 05:57:00;;;;;;;1.95;1.20;;;10.70;85.20;;;;;;5013554;28;20041;-70
2021/05/14 05:59:26;;;;;;;2.63;0.93;;;10.70;84.70;;;;;;5014217;28;20160;-71
2021/05/14 06:01:52;;;;;;;2.67;0.80;;;10.70;84.90;;;;;;5014716;28;20101;-70
2021/05/14 06:04:17;;;;;;;2.20;1.10;;;10.70;84.50;;;;;;5013256;28;20124;-71
2021/05/14 06:06:43;;;;;;;2.25;0.80;;;10.80;84.30;;;;;;5014021;28;20026;-71
2021/05/14 06:09:08;;;;;;;0.80;0.70;;;10.80;84.20;;;;;;5014539;28;20026;-70
2021/05/14 06:11:34;;;;;;;1.25;0.93;;;10.90;84.40;;;;;;5014178;28;20489;-71
2021/05/14 06:14:00;;;;;;;2.53;0.90;;;10.90;84.30;;;;;;5014123;28;20097;-70
2021/05/14 06:16:27;;;;;;;2.28;1.30;;;10.90;84.40;;;;;;5014504;28;20066;-70
2021/05/14 06:19:00;;;;;;;2.00;0.70;;;11.00;84.50;;;;;;5014347;28;20073;-70
2021/05/14 06:21:25;;;;;;;2.75;1.17;;;11.00;84.10;;;;;;5014306;28;20026;-71
2021/05/14 06:23:51;;;;;;;1.48;0.80;;;11.10;84.60;;;;;;5014243;28;20033;-69
2021/05/14 06:26:17;;;;;;;2.75;0.70;;;11.10;84.30;;;;;;5012661;28;20466;-69
2021/05/14 06:28:42;;;;;;;1.15;0.70;;;11.10;83.80;;;;;;5028765;28;20030;-69
2021/05/14 06:31:08;;;;;;;1.00;0.70;;;11.20;83.90;;;;;;5014202;28;20111;-70
2021/05/14 06:33:34;;;;;;;1.38;0.73;;;11.20;83.90;;;;;;5012388;28;20418;-69
2021/05/14 06:36:01;;;;;;;2.78;0.70;;;11.30;83.40;;;;;;5012882;28;20068;-68
2021/05/14 06:38:28;;;;;;;2.67;0.73;;;11.30;82.60;;;;;;5011778;28;20080;-72
2021/05/14 06:40:54;;;;;;;2.10;0.77;;;11.40;82.50;;;;;;5013951;28;20026;-69
2021/05/14 06:43:21;;;;;;;1.25;0.70;;;11.40;82.20;;;;;;5013937;28;20033;-69
2021/05/14 06:45:46;;;;;;;1.52;0.73;;;11.50;81.70;;;;;;5012022;28;20041;-69
2021/05/14 06:48:16;;;;;;;1.20;0.82;;;11.50;81.50;;;;;;5033590;28;20033;-69
2021/05/14 06:50:43;;;;;;;1.92;0.65;;;11.50;81.70;;;;;;5032938;28;20026;-69
2021/05/14 06:53:09;;;;;;;3.22;0.50;;;11.60;82.30;;;;;;5015953;28;20032;-69
2021/05/14 06:55:35;;;;;;;1.00;0.45;;;11.60;81.20;;;;;;5015152;28;20087;-69
2021/05/14 06:58:04;;;;;;;1.65;0.60;;;11.70;81.10;;;;;;5033397;28;20148;-69
2021/05/14 07:00:33;;;;;;;0.80;0.50;;;11.70;81.20;;;;;;5032785;28;20080;-69
2021/05/14 07:02:59;;;;;;;1.42;0.57;;;11.80;80.10;;;;;;5015599;28;20116;-69
2021/05/14 07:05:24;;;;;;;0.60;0.50;;;11.80;80.10;;;;;;5033020;28;20423;-69
2021/05/14 07:07:52;;;;;;;0.82;0.60;;;11.80;80.80;;;;;;5014828;28;20030;-69
2021/05/14 07:10:18;;;;;;;1.95;0.70;;;11.90;80.90;;;;;;5015139;28;20021;-69
2021/05/14 07:12:43;;;;;;;2.45;0.80;;;11.90;79.30;;;;;;5014861;28;20076;-68
2021/05/14 07:15:10;;;;;;;0.85;0.30;;;12.00;79.90;;;;;;5015292;28;20088;-69
2021/05/14 07:17:36;;;;;;;0.73;0.38;;;12.00;79.20;;;;;;5014828;28;20029;-69
2021/05/14 07:20:03;;;;;;;1.63;0.50;;;12.10;79.30;;;;;;5015263;28;20389;-69
2021/05/14 07:22:28;;;;;;;1.52;0.40;;;12.10;78.70;;;;;;5032993;28;20109;-69
2021/05/14 07:24:54;;;;;;;1.20;0.43;;;12.10;78.00;;;;;;5014717;28;20061;-69
2021/05/14 07:27:20;;;;;;;0.77;0.35;;;12.20;78.10;;;;;;5032902;28;20029;-69
2021/05/14 07:29:46;;;;;;;0.57;0.35;;;12.20;77.90;;;;;;5014558;28;20025;-69
2021/05/14 07:32:12;;;;;;;1.23;0.32;;;12.20;77.60;;;;;;5015187;28;20033;-69
2021/05/14 07:34:38;;;;;;;1.20;0.30;;;12.30;78.40;;;;;;5014420;28;20030;-69
2021/05/14 07:37:05;;;;;;;0.45;0.10;;;12.30;77.20;;;;;;5015042;28;20032;-71
2021/05/14 07:39:31;;;;;;;0.20;0.10;;;12.40;77.00;;;;;;5015024;28;20033;-71
2021/05/14 07:41:56;;;;;;;0.68;0.30;;;12.40;76.70;;;;;;5032653;28;20028;-72
2021/05/14 07:44:22;;;;;;;0.30;0.30;;;12.50;77.00;;;;;;5032727;28;20116;-71
2021/05/14 07:46:49;;;;;;;1.27;0.30;;;12.50;76.70;;;;;;5031966;28;20092;-71
2021/05/14 07:49:14;;;;;;;1.15;0.35;;;12.60;76.50;;;;;;5014707;28;20072;-69
2021/05/14 07:51:41;;;;;;;1.02;0.20;;;12.60;75.50;;;;;;5032028;28;20437;-70
2021/05/14 07:54:06;;;;;;;0.35;0.20;;;12.60;75.90;;;;;;5014479;28;20071;-71
2021/05/14 07:56:32;;;;;;;1.00;0.38;;;12.70;75.10;;;;;;5014370;28;20030;-75
2021/05/14 07:58:58;;;;;;;0.30;0.13;;;12.70;75.30;;;;;;5014801;28;20470;-71
2021/05/14 08:01:24;;;;;;;0.65;0.28;;;12.70;74.80;;;;;;5032512;28;20083;-71
2021/05/14 08:03:49;;;;;;;1.52;0.30;;;12.80;75.20;;;;;;5031929;28;20022;-71
2021/05/14 08:06:18;;;;;;;8.07;1.63;;;12.90;74.50;;;;;;5031159;28;20068;-71
2021/05/14 08:08:44;;;;;;;1.45;0.57;;;12.90;74.60;;;;;;5030595;28;20029;-71
2021/05/14 08:11:09;;;;;;;0.10;0.10;;;12.90;74.80;;;;;;5014420;28;20029;-71
2021/05/14 08:13:35;;;;;;;0.50;0.22;;;13.00;74.20;;;;;;5014029;28;20029;-72
2021/05/14 08:16:01;;;;;;;0.90;0.40;;;13.00;72.90;;;;;;5032068;28;20095;-71
2021/05/14 08:18:29;;;;;;;0.77;0.40;;;13.10;71.80;;;;;;5014624;28;20082;-71
2021/05/14 08:20:55;;;;;;;1.17;0.30;;;13.10;71.30;;;;;;5031684;28;20032;-71
2021/05/14 08:23:21;;;;;;;0.28;0.10;;;13.10;70.60;;;;;;5032318;28;20025;-71
2021/05/14 08:25:48;;;;;;;0.20;0.20;;;13.20;70.70;;;;;;5031707;28;20036;-72
2021/05/14 08:28:14;;;;;;;0.28;0.20;;;13.20;70.50;;;;;;5014451;28;20029;-71
2021/05/14 08:30:41;;;;;;;0.73;0.20;;;13.20;71.00;;;;;;5013951;28;20116;-71
2021/05/14 08:33:07;;;;;;;0.88;0.20;;;13.30;71.30;;;;;;5014534;28;20036;-71
2021/05/14 08:35:35;;;;;;;0.30;0.20;;;13.30;70.00;;;;;;5032128;28;20551;-71
2021/05/14 08:38:01;;;;;;;0.00;0.00;;;13.30;70.50;;;;;;5032205;28;20030;-71
2021/05/14 08:40:27;;;;;;;0.30;0.20;;;13.40;69.80;;;;;;5014739;28;20021;-71
2021/05/14 08:42:53;;;;;;;0.10;0.10;;;13.40;68.70;;;;;;5031764;28;20374;-71
2021/05/14 08:45:18;;;;;;;3.85;0.52;;;13.40;69.50;;;;;;5030792;28;20124;-71
2021/05/14 08:47:45;;;;;;;1.55;0.20;;;13.40;69.80;;;;;;5010001;28;20104;-71
2021/05/14 08:50:13;;;;;;;0.20;0.10;;;13.50;67.80;;;;;;5011173;28;20030;-71
2021/05/14 08:52:43;;;;;;;0.75;0.25;;;13.60;67.80;;;;;;5010422;28;20053;-71
2021/05/14 08:55:12;;;;;;;0.17;0.10;;;13.70;68.60;;;;;;5010930;28;20026;-71
2021/05/14 08:57:41;;;;;;;1.95;0.40;;;13.70;68.10;;;;;;5026844;28;20030;-72
2021/05/14 09:00:09;;;;;;;0.20;0.20;;;13.80;68.40;;;;;;5012250;28;20022;-71
2021/05/14 09:02:36;;;;;;;0.75;0.38;;;13.90;67.00;;;;;;5015843;28;20022;-71
2021/05/14 09:05:23;;;;;;;0.25;0.13;;;14.00;67.30;;;;;;5014665;28;20037;-71
2021/05/14 09:07:50;;;;;;;0.17;0.08;;;14.10;64.40;;;;;;5015179;28;20061;-71
2021/05/14 09:10:16;;;;;;;0.22;0.10;;;14.20;63.90;;;;;;5015729;28;20026;-71
2021/05/14 09:12:44;;;;;;;1.08;0.10;;;14.10;64.90;;;;;;5015076;28;20033;-71
2021/05/14 09:15:20;;;;;;;0.10;0.10;;;14.10;65.40;;;;;;5014208;28;20365;-72
2021/05/14 09:18:08;;;;;;;0.03;0.03;;;14.20;63.70;;;;;;5014967;28;20037;-71
2021/05/14 09:20:43;;;;;;;0.45;0.10;;;14.20;63.00;;;;;;5014207;28;20037;-71
2021/05/14 09:23:24;;;;;;;0.38;0.10;;;14.20;65.10;;;;;;5015529;28;20062;-71
2021/05/14 09:26:06;;;;;;;2.53;0.20;;;14.20;63.00;;;;;;5014891;28;20037;-71
2021/05/14 09:28:35;;;;;;;1.83;0.35;;;14.20;63.80;;;;;;5014172;28;20026;-71
2021/05/14 09:31:07;;;;;;;0.10;0.10;;;14.30;63.50;;;;;;5013464;28;20053;-71
2021/05/14 09:33:34;;;;;;;1.25;0.38;;;14.40;63.70;;;;;;5013977;28;20022;-70
2021/05/14 09:36:05;;;;;;;0.25;0.10;;;14.40;63.40;;;;;;5014281;28;20383;-71
2021/05/14 09:38:43;;;;;;;1.35;0.10;;;14.50;62.90;;;;;;5014156;28;20080;-71
2021/05/14 09:41:38;;;;;;;0.38;0.20;;;14.70;60.90;;;;;;5015501;28;20030;-71
2021/05/14 09:44:13;;;;;;;1.10;0.10;;;14.80;62.40;;;;;;5013769;28;20022;-71
2021/05/14 09:46:41;;;;;;;0.80;0.20;;;14.80;62.70;;;;;;5021874;28;20046;-73
2021/05/14 09:49:09;;;;;;;1.45;0.30;;;14.90;63.20;;;;;;5017111;28;20120;-71
2021/05/14 09:51:46;;;;;;;1.05;0.17;;;14.90;62.60;;;;;;5034739;28;20029;-71
2021/05/14 09:54:24;;;;;;;1.33;0.10;;;15.00;62.60;;;;;;5017041;28;20036;-72
2021/05/14 09:57:07;;;;;;;1.50;0.20;;;15.10;59.70;;;;;;5016361;28;20053;-71
2021/05/14 09:59:33;;;;;;;0.38;0.10;;;15.10;60.50;;;;;;5034206;28;20439;-71
2021/05/14 10:01:59;;;;;;;1.77;0.10;;;15.10;62.00;;;;;;5016107;28;20057;-71
2021/05/14 10:04:27;;;;;;;0.40;0.10;;;15.20;60.00;;;;;;5016715;28;20359;-71
2021/05/14 10:06:56;;;;;;;0.82;0.20;;;15.20;61.30;;;;;;5016095;28;20096;-69
2021/05/14 10:09:24;;;;;;;0.70;0.25;;;15.30;61.40;;;;;;5016269;28;20120;-69
2021/05/14 10:11:50;;;;;;;0.22;0.10;;;15.30;60.00;;;;;;5014648;28;20029;-71
2021/05/14 10:14:16;;;;;;;0.45;0.20;;;15.30;59.30;;;;;;5033797;28;22299;-71
2021/05/14 10:16:42;;;;;;;0.50;0.30;;;15.40;60.10;;;;;;5033322;28;20041;-72
2021/05/14 10:19:08;;;;;;;0.30;0.20;;;15.40;60.80;;;;;;5034512;28;20038;-71
2021/05/14 10:21:34;;;;;;;0.47;0.20;;;15.60;60.40;;;;;;5034195;28;20025;-71
2021/05/14 10:24:00;;;;;;;0.75;0.20;;;15.80;59.90;;;;;;5015762;28;20025;-71
2021/05/14 10:26:36;;;;;;;0.70;0.17;;;15.80;58.50;;;;;;5016538;28;20082;-69
2021/05/14 10:29:13;;;;;;;3.58;0.50;;;15.80;58.50;;;;;;5015772;28;20029;-69
2021/05/14 10:31:46;;;;;;;0.88;0.30;;;15.80;58.00;;;;;;5033969;28;20037;-69
2021/05/14 10:34:16;;;;;;;1.75;0.20;;;15.80;57.30;;;;;;5016089;28;20120;-69
2021/05/14 10:36:44;;;;;;;0.70;0.22;;;15.70;57.70;;;;;;5033596;28;20122;-75
2021/05/14 10:39:19;;;;;;;2.83;0.30;;;15.70;59.00;;;;;;5016024;28;20032;-71
2021/05/14 10:41:49;;;;;;;0.75;0.30;;;15.70;59.30;;;;;;5033200;28;20037;-71
2021/05/14 10:44:15;;;;;;;0.20;0.10;;;15.70;57.90;;;;;;5033787;28;20536;-71
2021/05/14 10:46:41;;;;;;;0.20;0.10;;;15.80;58.20;;;;;;5012227;28;20491;-71
2021/05/14 10:49:09;;;;;;;0.10;0.10;;;15.80;56.90;;;;;;5011878;28;20045;-71
2021/05/14 10:51:50;;;;;;;1.35;0.10;;;15.80;56.00;;;;;;5012652;28;20463;-71
2021/05/14 10:54:43;;;;;;;0.10;0.03;;;15.90;54.80;;;;;;5012631;28;20121;-71
2021/05/14 10:57:13;;;;;;;0.47;0.10;;;16.00;51.00;;;;;;5012143;28;20221;-71
2021/05/14 10:59:43;;;;;;;0.30;0.13;;;16.20;54.50;;;;;;5012365;28;20026;-71
2021/05/14 11:02:28;;;;;;;1.20;0.13;;;16.40;53.00;;;;;;5012091;28;20029;-72
2021/05/14 11:04:55;;;;;;;1.85;0.10;;;16.40;52.80;;;;;;5013014;28;20034;-72
2021/05/14 11:07:30;;;;;;;0.32;0.10;;;16.50;53.60;;;;;;5012348;28;20064;-72
2021/05/14 11:10:14;;;;;;;0.20;0.10;;;16.70;55.30;;;;;;5011562;28;20022;-72
2021/05/14 11:12:40;;;;;;;1.13;0.20;;;16.90;54.50;;;;;;5012276;28;20048;-72
2021/05/14 11:15:21;;;;;;;0.20;0.03;;;17.00;52.00;;;;;;5011419;28;20037;-72
2021/05/14 11:18:05;;;;;;;0.65;0.17;;;17.10;50.50;;;;;;5011203;28;20092;-72
2021/05/14 11:20:50;;;;;;;0.30;0.10;;;17.20;50.70;;;;;;5013292;28;20029;-69
2021/05/14 11:23:35;;;;;;;0.10;0.10;;;17.40;51.50;;;;;;5011974;28;20426;-69
2021/05/14 11:26:06;;;;;;;0.20;0.08;;;17.50;50.70;;;;;;5011484;28;20037;-69
2021/05/14 11:28:44;;;;;;;0.93;0.10;;;17.70;50.20;;;;;;5028413;28;20030;-69
2021/05/14 11:31:24;;;;;;;0.57;0.20;;;17.70;47.90;;;;;;5011918;28;20036;-70
2021/05/14 11:33:51;;;;;;;0.88;0.43;;;17.40;48.80;;;;;;5012590;28;20030;-69
2021/05/14 11:36:17;;;;;;;1.80;0.20;;;17.30;50.20;;;;;;5011561;28;20034;-69
2021/05/14 11:38:56;;;;;;;0.57;0.08;;;17.30;50.40;;;;;;5013017;28;20117;-69
2021/05/14 11:41:32;;;;;;;0.10;0.00;;;17.30;49.80;;;;;;5011691;28;20106;-69
2021/05/14 11:44:07;;;;;;;0.70;0.20;;;17.20;47.60;;;;;;5012420;28;20026;-69
2021/05/14 11:46:34;;;;;;;0.65;0.10;;;17.20;49.30;;;;;;5011230;28;20050;-69
2021/05/14 11:49:09;;;;;;;0.28;0.10;;;17.40;49.70;;;;;;5010961;28;20439;-69
2021/05/14 11:51:39;;;;;;;0.10;0.03;;;17.60;49.70;;;;;;5012895;28;20022;-69
2021/05/14 11:54:14;;;;;;;0.98;0.10;;;17.70;50.00;;;;;;5010892;28;20387;-69
2021/05/14 11:56:41;;;;;;;2.05;1.10;;;17.70;50.40;;;;;;5011534;28;20026;-71
2021/05/14 11:59:19;;;;;;;1.48;1.10;;;17.60;50.20;;;;;;5010940;28;20033;-71
2021/05/14 12:01:45;;;;;;;1.08;0.30;;;17.60;50.00;;;;;;5011582;28;20022;-69
2021/05/14 12:04:12;;;;;;;0.38;0.25;;;17.80;50.60;;;;;;5012153;28;20026;-69
2021/05/14 12:06:48;;;;;;;0.47;0.20;;;17.90;50.40;;;;;;5012747;28;20022;-69
2021/05/14 12:09:14;;;;;;;0.20;0.20;;;17.80;49.30;;;;;;5013031;28;20053;-69
2021/05/14 12:11:41;;;;;;;0.28;0.20;;;17.80;49.80;;;;;;5027837;28;20467;-69
2021/05/14 12:14:08;;;;;;;1.98;0.25;;;17.80;50.20;;;;;;5010706;28;20046;-69
2021/05/14 12:16:36;;;;;;;1.42;0.20;;;17.80;50.10;;;;;;5012764;28;20034;-69
2021/05/14 12:19:04;;;;;;;1.10;0.20;;;17.80;50.30;;;;;;5011004;28;20509;-69
2021/05/14 12:21:35;;;;;;;0.43;0.20;;;17.90;50.70;;;;;;5011360;28;20028;-69
2021/05/14 12:24:13;;;;;;;0.47;0.20;;;17.90;50.40;;;;;;5010832;28;20036;-69
2021/05/14 12:26:41;;;;;;;0.47;0.10;;;17.80;50.70;;;;;;5011558;28;20033;-69
2021/05/14 12:29:26;;;;;;;1.25;0.10;;;17.50;50.80;;;;;;5010398;28;20117;-69
2021/05/14 12:32:04;;;;;;;0.75;0.20;;;17.50;51.30;;;;;;5010678;28;20041;-69
2021/05/14 12:34:30;;;;;;;1.63;0.20;;;17.40;52.00;;;;;;5012547;28;20033;-69
2021/05/14 12:36:58;;;;;;;0.98;0.20;;;17.50;52.20;;;;;;5015009;28;20030;-69
2021/05/14 12:39:24;;;;;;;0.73;0.22;;;17.30;51.70;;;;;;5015072;28;20034;-69
2021/05/14 12:41:52;;;;;;;0.93;0.20;;;17.30;52.30;;;;;;5015608;28;20037;-69
2021/05/14 12:44:22;;;;;;;0.60;0.17;;;17.20;52.00;;;;;;5014951;28;20065;-71
2021/05/14 12:46:58;;;;;;;0.85;0.20;;;17.20;52.60;;;;;;5014662;28;20509;-71
2021/05/14 12:49:24;;;;;;;0.77;0.20;;;17.10;52.00;;;;;;5015013;28;20030;-71
2021/05/14 12:52:02;;;;;;;0.20;0.20;;;17.10;52.80;;;;;;5014183;28;20445;-70
2021/05/14 12:54:28;;;;;;;0.50;0.30;;;17.10;52.40;;;;;;5015995;28;20030;-69